首页
METAR-TAF:

METAR-TAF

机场 :

巴斯蒂亚, 法国

纬度: 42-33N, 经度: 009-29E, 海拔: 8米

当前天气观测

该预报发布于36分钟前的19:30 UTC
风速2节,风向西北
温度 9°C
湿度 93%
气压 1025 hPa
能见度10公里或以上
少量云层高于2800英尺

METAR: LFKB 211930Z AUTO 31002KT 9999 FEW028 09/08 Q1025 NOSIG

时间: 21:06 (20:06 UTC)

预报

该预报发布于6小时和6分钟前的14:00 UTC
预报有效从21日的 15点(UTC)到 22日的 15点(UTC)
风速6节,风向东转东南
能见度10公里或以上
多云层高于2500英尺
成为
从 21日的 18点(UTC)到 21日的 21点(UTC)
风速4节,风向西转西南

TAF: LFKB 211400Z 2115/2215 12006KT 9999 BKN025 TX17/2212Z TN06/2205Z BECMG 2118/2121 24004KT NSC

超过4000个机场的气象观测和天气预报(METAR&TAF报告)。

可查询的气象台以黄色和红色小点在地图上表示。

将鼠标移到小点上方,可查看气象台名称。

然后点击查看天气观测和预报。

如需切换地图:点击带黑十字的绿色按钮放大地图;点击带横线的绿色按钮缩小地图;或者点击绿色箭头查看邻近地区的地图。


METAR-TAF: